sensor_id;sensor_type;location;lat;lon;timestamp;P1;durP1;ratioP1;P2;durP2;ratioP2
71639;SDS011;60912;48.968;10.124;2022-08-30T00:02:32;10.85;;;6.07;;
71639;SDS011;60912;48.968;10.124;2022-08-30T00:04:58;8.10;;;5.00;;
71639;SDS011;60912;48.968;10.124;2022-08-30T00:07:25;9.18;;;5.43;;
71639;SDS011;60912;48.968;10.124;2022-08-30T00:09:51;8.30;;;5.60;;
71639;SDS011;60912;48.968;10.124;2022-08-30T00:12:17;9.17;;;5.60;;
71639;SDS011;60912;48.968;10.124;2022-08-30T00:14:44;11.85;;;5.80;;
71639;SDS011;60912;48.968;10.124;2022-08-30T00:17:10;10.00;;;5.93;;
71639;SDS011;60912;48.968;10.124;2022-08-30T00:19:35;7.53;;;5.53;;
71639;SDS011;60912;48.968;10.124;2022-08-30T00:22:02;10.73;;;5.60;;
71639;SDS011;60912;48.968;10.124;2022-08-30T00:24:27;9.27;;;5.78;;
71639;SDS011;60912;48.968;10.124;2022-08-30T00:26:53;7.97;;;5.50;;
71639;SDS011;60912;48.968;10.124;2022-08-30T00:29:18;11.20;;;5.10;;
71639;SDS011;60912;48.968;10.124;2022-08-30T00:31:44;9.15;;;5.40;;
71639;SDS011;60912;48.968;10.124;2022-08-30T00:34:09;9.63;;;5.27;;
71639;SDS011;60912;48.968;10.124;2022-08-30T00:36:35;6.70;;;5.40;;
71639;SDS011;60912;48.968;10.124;2022-08-30T00:39:00;8.13;;;5.60;;
71639;SDS011;60912;48.968;10.124;2022-08-30T00:41:26;11.65;;;6.18;;
71639;SDS011;60912;48.968;10.124;2022-08-30T00:43:52;7.43;;;5.50;;
71639;SDS011;60912;48.968;10.124;2022-08-30T00:46:17;7.00;;;5.28;;
71639;SDS011;60912;48.968;10.124;2022-08-30T00:48:44;9.87;;;5.80;;
71639;SDS011;60912;48.968;10.124;2022-08-30T00:51:13;10.30;;;5.32;;
71639;SDS011;60912;48.968;10.124;2022-08-30T00:53:42;9.67;;;5.20;;
71639;SDS011;60912;48.968;10.124;2022-08-30T00:56:10;8.63;;;5.35;;
71639;SDS011;60912;48.968;10.124;2022-08-30T00:58:37;10.82;;;5.60;;
71639;SDS011;60912;48.968;10.124;2022-08-30T01:01:08;13.23;;;5.07;;
71639;SDS011;60912;48.968;10.124;2022-08-30T01:03:34;9.50;;;5.60;;
71639;SDS011;60912;48.968;10.124;2022-08-30T01:06:02;7.83;;;5.23;;
71639;SDS011;60912;48.968;10.124;2022-08-30T01:08:29;7.72;;;5.10;;
71639;SDS011;60912;48.968;10.124;2022-08-30T01:10:54;8.38;;;5.05;;
71639;SDS011;60912;48.968;10.124;2022-08-30T01:13:21;7.20;;;4.90;;
71639;SDS011;60912;48.968;10.124;2022-08-30T01:15:49;10.23;;;5.60;;
71639;SDS011;60912;48.968;10.124;2022-08-30T01:18:15;7.72;;;5.10;;
71639;SDS011;60912;48.968;10.124;2022-08-30T01:20:46;8.35;;;5.00;;
71639;SDS011;60912;48.968;10.124;2022-08-30T01:23:27;9.02;;;5.35;;
71639;SDS011;60912;48.968;10.124;2022-08-30T01:25:55;7.85;;;5.22;;
71639;SDS011;60912;48.968;10.124;2022-08-30T01:28:25;7.53;;;5.00;;
71639;SDS011;60912;48.968;10.124;2022-08-30T01:30:52;8.82;;;5.20;;
71639;SDS011;60912;48.968;10.124;2022-08-30T01:33:18;7.47;;;4.77;;
71639;SDS011;60912;48.968;10.124;2022-08-30T01:38:13;8.60;;;5.20;;
71639;SDS011;60912;48.968;10.124;2022-08-30T01:40:41;8.00;;;5.07;;
71639;SDS011;60912;48.968;10.124;2022-08-30T01:43:06;8.90;;;5.07;;
71639;SDS011;60912;48.968;10.124;2022-08-30T01:45:32;7.82;;;4.65;;
71639;SDS011;60912;48.968;10.124;2022-08-30T01:47:58;8.77;;;5.53;;
71639;SDS011;60912;48.968;10.124;2022-08-30T01:50:23;8.57;;;5.17;;
71639;SDS011;60912;48.968;10.124;2022-08-30T01:52:49;7.53;;;4.93;;
71639;SDS011;60912;48.968;10.124;2022-08-30T01:55:14;9.63;;;4.93;;
71639;SDS011;60912;48.968;10.124;2022-08-30T01:57:39;7.60;;;4.63;;
71639;SDS011;60912;48.968;10.124;2022-08-30T02:00:06;7.32;;;5.00;;
71639;SDS011;60912;48.968;10.124;2022-08-30T02:02:34;7.15;;;5.05;;
71639;SDS011;60912;48.968;10.124;2022-08-30T02:04:59;6.97;;;4.50;;
71639;SDS011;60912;48.968;10.124;2022-08-30T02:07:25;10.27;;;4.37;;
71639;SDS011;60912;48.968;10.124;2022-08-30T02:09:51;10.13;;;5.05;;
71639;SDS011;60912;48.968;10.124;2022-08-30T02:12:16;11.10;;;4.60;;
71639;SDS011;60912;48.968;10.124;2022-08-30T02:14:42;7.53;;;4.60;;
71639;SDS011;60912;48.968;10.124;2022-08-30T02:17:08;8.03;;;4.33;;
71639;SDS011;60912;48.968;10.124;2022-08-30T02:19:36;6.25;;;4.65;;
71639;SDS011;60912;48.968;10.124;2022-08-30T02:22:02;7.13;;;4.38;;
71639;SDS011;60912;48.968;10.124;2022-08-30T02:24:28;7.20;;;4.65;;
71639;SDS011;60912;48.968;10.124;2022-08-30T02:26:53;8.17;;;4.70;;
71639;SDS011;60912;48.968;10.124;2022-08-30T02:29:19;6.60;;;5.23;;
71639;SDS011;60912;48.968;10.124;2022-08-30T02:31:46;7.25;;;4.78;;
71639;SDS011;60912;48.968;10.124;2022-08-30T02:34:11;6.43;;;4.53;;
71639;SDS011;60912;48.968;10.124;2022-08-30T02:36:37;6.40;;;4.13;;
71639;SDS011;60912;48.968;10.124;2022-08-30T02:39:04;8.63;;;4.80;;
71639;SDS011;60912;48.968;10.124;2022-08-30T02:41:30;6.57;;;4.55;;
71639;SDS011;60912;48.968;10.124;2022-08-30T02:43:56;9.10;;;5.17;;
71639;SDS011;60912;48.968;10.124;2022-08-30T02:46:23;9.38;;;4.55;;
71639;SDS011;60912;48.968;10.124;2022-08-30T02:48:49;7.97;;;4.85;;
71639;SDS011;60912;48.968;10.124;2022-08-30T02:51:14;8.80;;;4.90;;
71639;SDS011;60912;48.968;10.124;2022-08-30T02:53:40;8.57;;;4.90;;
71639;SDS011;60912;48.968;10.124;2022-08-30T02:56:08;8.43;;;4.93;;
71639;SDS011;60912;48.968;10.124;2022-08-30T02:58:34;7.60;;;4.85;;
71639;SDS011;60912;48.968;10.124;2022-08-30T03:01:00;9.93;;;4.70;;
71639;SDS011;60912;48.968;10.124;2022-08-30T03:03:26;8.32;;;5.30;;
71639;SDS011;60912;48.968;10.124;2022-08-30T03:05:52;9.07;;;4.90;;
71639;SDS011;60912;48.968;10.124;2022-08-30T03:08:17;7.50;;;4.60;;
71639;SDS011;60912;48.968;10.124;2022-08-30T03:10:42;8.27;;;5.20;;
71639;SDS011;60912;48.968;10.124;2022-08-30T03:13:08;9.60;;;5.10;;
71639;SDS011;60912;48.968;10.124;2022-08-30T03:15:34;8.27;;;5.07;;
71639;SDS011;60912;48.968;10.124;2022-08-30T03:18:01;8.27;;;5.45;;
71639;SDS011;60912;48.968;10.124;2022-08-30T03:20:27;8.20;;;4.83;;
71639;SDS011;60912;48.968;10.124;2022-08-30T03:22:53;9.77;;;5.35;;
71639;SDS011;60912;48.968;10.124;2022-08-30T03:25:19;9.03;;;4.97;;
71639;SDS011;60912;48.968;10.124;2022-08-30T03:27:46;9.00;;;5.40;;
71639;SDS011;60912;48.968;10.124;2022-08-30T03:30:12;10.43;;;5.72;;
71639;SDS011;60912;48.968;10.124;2022-08-30T03:32:38;7.13;;;4.80;;
71639;SDS011;60912;48.968;10.124;2022-08-30T03:35:05;10.23;;;5.30;;
71639;SDS011;60912;48.968;10.124;2022-08-30T03:37:31;7.55;;;5.28;;
71639;SDS011;60912;48.968;10.124;2022-08-30T03:39:57;7.20;;;5.00;;
71639;SDS011;60912;48.968;10.124;2022-08-30T03:42:22;8.47;;;4.80;;
71639;SDS011;60912;48.968;10.124;2022-08-30T03:44:48;7.50;;;4.65;;
71639;SDS011;60912;48.968;10.124;2022-08-30T03:47:14;7.83;;;4.67;;
71639;SDS011;60912;48.968;10.124;2022-08-30T03:49:39;6.90;;;3.90;;
71639;SDS011;60912;48.968;10.124;2022-08-30T03:52:04;6.27;;;4.40;;
71639;SDS011;60912;48.968;10.124;2022-08-30T03:54:30;7.07;;;4.30;;
71639;SDS011;60912;48.968;10.124;2022-08-30T03:56:55;7.10;;;4.73;;
71639;SDS011;60912;48.968;10.124;2022-08-30T03:59:21;8.45;;;5.35;;
71639;SDS011;60912;48.968;10.124;2022-08-30T04:01:46;6.50;;;4.57;;
71639;SDS011;60912;48.968;10.124;2022-08-30T04:04:12;7.53;;;4.20;;
71639;SDS011;60912;48.968;10.124;2022-08-30T04:06:38;7.60;;;4.30;;
71639;SDS011;60912;48.968;10.124;2022-08-30T04:09:03;7.97;;;4.47;;
71639;SDS011;60912;48.968;10.124;2022-08-30T04:11:29;6.93;;;4.82;;
71639;SDS011;60912;48.968;10.124;2022-08-30T04:13:54;9.83;;;4.83;;
71639;SDS011;60912;48.968;10.124;2022-08-30T04:16:21;7.75;;;4.45;;
71639;SDS011;60912;48.968;10.124;2022-08-30T04:18:47;7.95;;;4.82;;
71639;SDS011;60912;48.968;10.124;2022-08-30T04:21:12;7.33;;;4.97;;
71639;SDS011;60912;48.968;10.124;2022-08-30T04:23:38;7.23;;;4.80;;
71639;SDS011;60912;48.968;10.124;2022-08-30T04:26:03;9.93;;;4.83;;
71639;SDS011;60912;48.968;10.124;2022-08-30T04:28:28;7.30;;;4.40;;
71639;SDS011;60912;48.968;10.124;2022-08-30T04:30:54;7.13;;;4.40;;
71639;SDS011;60912;48.968;10.124;2022-08-30T04:33:19;7.23;;;4.30;;
71639;SDS011;60912;48.968;10.124;2022-08-30T04:35:46;9.77;;;4.50;;
71639;SDS011;60912;48.968;10.124;2022-08-30T04:38:13;9.27;;;5.45;;
71639;SDS011;60912;48.968;10.124;2022-08-30T04:40:41;6.60;;;4.50;;
71639;SDS011;60912;48.968;10.124;2022-08-30T04:43:08;10.25;;;4.75;;
71639;SDS011;60912;48.968;10.124;2022-08-30T04:45:36;6.72;;;4.18;;
71639;SDS011;60912;48.968;10.124;2022-08-30T04:48:04;7.53;;;4.25;;
71639;SDS011;60912;48.968;10.124;2022-08-30T04:50:29;7.97;;;4.67;;
71639;SDS011;60912;48.968;10.124;2022-08-30T04:52:55;7.45;;;4.30;;
71639;SDS011;60912;48.968;10.124;2022-08-30T04:55:20;7.00;;;4.37;;
71639;SDS011;60912;48.968;10.124;2022-08-30T04:57:45;6.67;;;4.60;;
71639;SDS011;60912;48.968;10.124;2022-08-30T05:00:11;9.83;;;4.43;;
71639;SDS011;60912;48.968;10.124;2022-08-30T05:02:38;8.55;;;4.60;;
71639;SDS011;60912;48.968;10.124;2022-08-30T05:05:05;7.60;;;4.80;;
71639;SDS011;60912;48.968;10.124;2022-08-30T05:07:49;7.25;;;4.05;;
71639;SDS011;60912;48.968;10.124;2022-08-30T05:10:15;6.27;;;4.10;;
71639;SDS011;60912;48.968;10.124;2022-08-30T05:12:40;7.40;;;4.33;;
71639;SDS011;60912;48.968;10.124;2022-08-30T05:15:06;5.80;;;3.85;;
71639;SDS011;60912;48.968;10.124;2022-08-30T05:17:32;6.20;;;3.67;;
71639;SDS011;60912;48.968;10.124;2022-08-30T05:19:59;6.67;;;3.80;;
71639;SDS011;60912;48.968;10.124;2022-08-30T05:22:26;6.45;;;3.60;;
71639;SDS011;60912;48.968;10.124;2022-08-30T05:24:51;8.32;;;4.05;;
71639;SDS011;60912;48.968;10.124;2022-08-30T05:27:17;7.93;;;4.00;;
71639;SDS011;60912;48.968;10.124;2022-08-30T05:29:42;8.17;;;4.00;;
71639;SDS011;60912;48.968;10.124;2022-08-30T05:32:07;5.97;;;4.00;;
71639;SDS011;60912;48.968;10.124;2022-08-30T05:34:33;7.20;;;4.33;;
71639;SDS011;60912;48.968;10.124;2022-08-30T05:36:58;7.53;;;3.65;;
71639;SDS011;60912;48.968;10.124;2022-08-30T05:39:26;7.27;;;3.40;;
71639;SDS011;60912;48.968;10.124;2022-08-30T05:41:54;7.78;;;3.80;;
71639;SDS011;60912;48.968;10.124;2022-08-30T05:44:23;6.82;;;4.10;;
71639;SDS011;60912;48.968;10.124;2022-08-30T05:46:50;8.15;;;4.00;;
71639;SDS011;60912;48.968;10.124;2022-08-30T05:49:16;5.43;;;3.70;;
71639;SDS011;60912;48.968;10.124;2022-08-30T05:51:42;8.60;;;4.50;;
71639;SDS011;60912;48.968;10.124;2022-08-30T05:54:09;11.43;;;4.30;;
71639;SDS011;60912;48.968;10.124;2022-08-30T05:56:36;9.70;;;4.40;;
71639;SDS011;60912;48.968;10.124;2022-08-30T05:59:03;10.02;;;4.40;;
71639;SDS011;60912;48.968;10.124;2022-08-30T06:03:57;7.95;;;4.30;;
71639;SDS011;60912;48.968;10.124;2022-08-30T06:06:24;7.55;;;4.07;;
71639;SDS011;60912;48.968;10.124;2022-08-30T06:08:50;7.03;;;4.60;;
71639;SDS011;60912;48.968;10.124;2022-08-30T06:11:17;7.53;;;3.77;;
71639;SDS011;60912;48.968;10.124;2022-08-30T06:13:45;11.07;;;4.57;;
71639;SDS011;60912;48.968;10.124;2022-08-30T06:16:11;7.90;;;3.78;;
71639;SDS011;60912;48.968;10.124;2022-08-30T06:18:38;5.93;;;3.55;;
71639;SDS011;60912;48.968;10.124;2022-08-30T06:21:03;9.67;;;3.90;;
71639;SDS011;60912;48.968;10.124;2022-08-30T06:23:29;7.38;;;4.47;;
71639;SDS011;60912;48.968;10.124;2022-08-30T06:25:55;8.47;;;5.03;;
71639;SDS011;60912;48.968;10.124;2022-08-30T06:28:20;8.32;;;4.40;;
71639;SDS011;60912;48.968;10.124;2022-08-30T06:30:46;10.03;;;4.93;;
71639;SDS011;60912;48.968;10.124;2022-08-30T06:33:11;14.60;;;4.33;;
71639;SDS011;60912;48.968;10.124;2022-08-30T06:35:37;7.40;;;4.03;;
71639;SDS011;60912;48.968;10.124;2022-08-30T06:38:02;10.40;;;4.30;;
71639;SDS011;60912;48.968;10.124;2022-08-30T06:40:28;8.97;;;4.90;;
71639;SDS011;60912;48.968;10.124;2022-08-30T06:42:53;8.57;;;5.00;;
71639;SDS011;60912;48.968;10.124;2022-08-30T06:45:19;9.77;;;4.43;;
71639;SDS011;60912;48.968;10.124;2022-08-30T06:47:45;8.40;;;4.32;;
71639;SDS011;60912;48.968;10.124;2022-08-30T06:50:12;8.63;;;4.60;;
71639;SDS011;60912;48.968;10.124;2022-08-30T06:52:39;7.40;;;4.37;;
71639;SDS011;60912;48.968;10.124;2022-08-30T06:55:06;10.68;;;4.80;;
71639;SDS011;60912;48.968;10.124;2022-08-30T06:57:33;9.30;;;4.47;;
71639;SDS011;60912;48.968;10.124;2022-08-30T06:59:58;9.50;;;4.30;;
71639;SDS011;60912;48.968;10.124;2022-08-30T07:02:23;11.50;;;5.47;;
71639;SDS011;60912;48.968;10.124;2022-08-30T07:04:49;12.85;;;5.13;;
71639;SDS011;60912;48.968;10.124;2022-08-30T07:07:15;10.03;;;4.50;;
71639;SDS011;60912;48.968;10.124;2022-08-30T07:09:40;7.47;;;4.70;;
71639;SDS011;60912;48.968;10.124;2022-08-30T07:12:10;8.43;;;4.80;;
71639;SDS011;60912;48.968;10.124;2022-08-30T07:14:37;9.68;;;5.20;;
71639;SDS011;60912;48.968;10.124;2022-08-30T07:17:04;7.55;;;4.65;;
71639;SDS011;60912;48.968;10.124;2022-08-30T07:19:49;7.47;;;4.68;;
71639;SDS011;60912;48.968;10.124;2022-08-30T07:22:14;10.57;;;5.30;;
71639;SDS011;60912;48.968;10.124;2022-08-30T07:24:40;7.95;;;4.53;;
71639;SDS011;60912;48.968;10.124;2022-08-30T07:27:06;8.83;;;4.53;;
71639;SDS011;60912;48.968;10.124;2022-08-30T07:29:31;10.53;;;5.33;;
71639;SDS011;60912;48.968;10.124;2022-08-30T07:31:56;7.70;;;4.43;;
71639;SDS011;60912;48.968;10.124;2022-08-30T07:34:22;13.20;;;4.90;;
71639;SDS011;60912;48.968;10.124;2022-08-30T07:36:47;7.38;;;4.32;;
71639;SDS011;60912;48.968;10.124;2022-08-30T07:39:13;8.67;;;4.20;;
71639;SDS011;60912;48.968;10.124;2022-08-30T07:41:38;8.80;;;4.57;;
71639;SDS011;60912;48.968;10.124;2022-08-30T07:44:04;8.20;;;4.20;;
71639;SDS011;60912;48.968;10.124;2022-08-30T07:46:30;7.90;;;4.68;;
71639;SDS011;60912;48.968;10.124;2022-08-30T07:48:57;10.83;;;4.53;;
71639;SDS011;60912;48.968;10.124;2022-08-30T07:51:24;8.82;;;4.80;;
71639;SDS011;60912;48.968;10.124;2022-08-30T07:53:51;7.97;;;4.60;;
71639;SDS011;60912;48.968;10.124;2022-08-30T07:56:17;7.10;;;4.20;;
71639;SDS011;60912;48.968;10.124;2022-08-30T07:58:43;10.23;;;4.30;;
71639;SDS011;60912;48.968;10.124;2022-08-30T08:01:09;7.30;;;4.17;;
71639;SDS011;60912;48.968;10.124;2022-08-30T08:03:36;7.68;;;4.45;;
71639;SDS011;60912;48.968;10.124;2022-08-30T08:06:04;6.05;;;4.40;;
71639;SDS011;60912;48.968;10.124;2022-08-30T08:08:30;8.32;;;4.82;;
71639;SDS011;60912;48.968;10.124;2022-08-30T08:10:57;9.20;;;4.30;;
71639;SDS011;60912;48.968;10.124;2022-08-30T08:13:23;8.73;;;4.97;;
71639;SDS011;60912;48.968;10.124;2022-08-30T08:15:48;7.90;;;4.55;;
71639;SDS011;60912;48.968;10.124;2022-08-30T08:18:14;6.77;;;4.50;;
71639;SDS011;60912;48.968;10.124;2022-08-30T08:20:40;10.47;;;4.67;;
71639;SDS011;60912;48.968;10.124;2022-08-30T08:23:05;7.95;;;4.47;;
71639;SDS011;60912;48.968;10.124;2022-08-30T08:25:31;11.17;;;4.97;;
71639;SDS011;60912;48.968;10.124;2022-08-30T08:27:57;10.20;;;5.03;;
71639;SDS011;60912;48.968;10.124;2022-08-30T08:30:22;11.13;;;4.93;;
71639;SDS011;60912;48.968;10.124;2022-08-30T08:32:48;11.15;;;4.80;;
71639;SDS011;60912;48.968;10.124;2022-08-30T08:35:14;8.83;;;5.03;;
71639;SDS011;60912;48.968;10.124;2022-08-30T08:37:41;7.53;;;4.78;;
71639;SDS011;60912;48.968;10.124;2022-08-30T08:40:07;9.63;;;4.90;;
71639;SDS011;60912;48.968;10.124;2022-08-30T08:45:18;7.45;;;4.63;;
71639;SDS011;60912;48.968;10.124;2022-08-30T08:48:21;9.35;;;4.82;;
71639;SDS011;60912;48.968;10.124;2022-08-30T08:51:17;8.93;;;4.70;;
71639;SDS011;60912;48.968;10.124;2022-08-30T08:54:09;10.83;;;5.20;;
71639;SDS011;60912;48.968;10.124;2022-08-30T08:56:39;8.98;;;4.22;;
71639;SDS011;60912;48.968;10.124;2022-08-30T08:59:06;9.50;;;4.90;;
71639;SDS011;60912;48.968;10.124;2022-08-30T09:01:32;8.65;;;4.38;;
71639;SDS011;60912;48.968;10.124;2022-08-30T09:04:02;9.30;;;4.55;;
71639;SDS011;60912;48.968;10.124;2022-08-30T09:06:45;8.20;;;4.82;;
71639;SDS011;60912;48.968;10.124;2022-08-30T09:09:34;7.68;;;5.30;;
71639;SDS011;60912;48.968;10.124;2022-08-30T09:12:03;8.80;;;4.87;;
71639;SDS011;60912;48.968;10.124;2022-08-30T09:14:36;8.07;;;4.75;;
71639;SDS011;60912;48.968;10.124;2022-08-30T09:17:11;7.40;;;4.60;;
71639;SDS011;60912;48.968;10.124;2022-08-30T09:25:00;9.80;;;5.07;;
71639;SDS011;60912;48.968;10.124;2022-08-30T09:27:36;7.57;;;4.43;;
71639;SDS011;60912;48.968;10.124;2022-08-30T09:32:32;8.40;;;4.78;;
71639;SDS011;60912;48.968;10.124;2022-08-30T09:35:03;9.88;;;4.85;;
71639;SDS011;60912;48.968;10.124;2022-08-30T09:37:32;5.80;;;4.60;;
71639;SDS011;60912;48.968;10.124;2022-08-30T09:39:59;6.85;;;4.22;;
71639;SDS011;60912;48.968;10.124;2022-08-30T09:42:31;6.90;;;4.78;;
71639;SDS011;60912;48.968;10.124;2022-08-30T09:44:57;8.23;;;4.60;;
71639;SDS011;60912;48.968;10.124;2022-08-30T09:47:35;9.18;;;4.85;;
71639;SDS011;60912;48.968;10.124;2022-08-30T10:00:13;8.70;;;5.20;;
71639;SDS011;60912;48.968;10.124;2022-08-30T10:19:45;7.45;;;4.53;;
71639;SDS011;60912;48.968;10.124;2022-08-30T10:22:29;7.85;;;4.13;;
71639;SDS011;60912;48.968;10.124;2022-08-30T10:25:04;8.15;;;4.57;;
71639;SDS011;60912;48.968;10.124;2022-08-30T10:27:49;8.15;;;4.60;;
71639;SDS011;60912;48.968;10.124;2022-08-30T10:30:18;8.00;;;4.50;;
71639;SDS011;60912;48.968;10.124;2022-08-30T10:35:36;9.68;;;4.18;;
71639;SDS011;60912;48.968;10.124;2022-08-30T10:38:16;6.72;;;4.35;;
71639;SDS011;60912;48.968;10.124;2022-08-30T10:40:49;7.23;;;4.17;;
71639;SDS011;60912;48.968;10.124;2022-08-30T10:43:54;9.80;;;4.57;;
71639;SDS011;60912;48.968;10.124;2022-08-30T10:49:16;5.88;;;4.10;;
71639;SDS011;60912;48.968;10.124;2022-08-30T10:54:37;6.63;;;4.30;;
71639;SDS011;60912;48.968;10.124;2022-08-30T10:57:12;5.95;;;4.18;;
71639;SDS011;60912;48.968;10.124;2022-08-30T10:59:38;8.83;;;4.00;;
71639;SDS011;60912;48.968;10.124;2022-08-30T11:13:53;7.10;;;4.10;;
71639;SDS011;60912;48.968;10.124;2022-08-30T11:16:19;6.53;;;3.90;;
71639;SDS011;60912;48.968;10.124;2022-08-30T11:18:59;6.93;;;4.00;;
71639;SDS011;60912;48.968;10.124;2022-08-30T11:31:51;7.00;;;4.00;;
71639;SDS011;60912;48.968;10.124;2022-08-30T11:37:08;7.72;;;4.07;;
71639;SDS011;60912;48.968;10.124;2022-08-30T11:39:43;7.22;;;3.67;;
71639;SDS011;60912;48.968;10.124;2022-08-30T11:42:26;7.75;;;4.05;;
71639;SDS011;60912;48.968;10.124;2022-08-30T11:55:39;8.82;;;3.83;;
71639;SDS011;60912;48.968;10.124;2022-08-30T11:58:30;5.53;;;4.03;;
71639;SDS011;60912;48.968;10.124;2022-08-30T12:09:09;7.20;;;3.75;;
71639;SDS011;60912;48.968;10.124;2022-08-30T12:14:03;6.40;;;3.77;;
71639;SDS011;60912;48.968;10.124;2022-08-30T12:18:58;6.93;;;4.27;;
71639;SDS011;60912;48.968;10.124;2022-08-30T12:21:42;6.03;;;3.80;;
71639;SDS011;60912;48.968;10.124;2022-08-30T12:26:46;7.57;;;4.35;;
71639;SDS011;60912;48.968;10.124;2022-08-30T12:29:15;11.57;;;4.30;;
71639;SDS011;60912;48.968;10.124;2022-08-30T12:34:16;7.40;;;4.30;;
71639;SDS011;60912;48.968;10.124;2022-08-30T12:36:55;9.68;;;4.55;;
71639;SDS011;60912;48.968;10.124;2022-08-30T12:39:27;8.63;;;4.80;;
71639;SDS011;60912;48.968;10.124;2022-08-30T12:44:46;7.72;;;4.50;;
71639;SDS011;60912;48.968;10.124;2022-08-30T12:47:16;6.85;;;4.20;;
71639;SDS011;60912;48.968;10.124;2022-08-30T12:49:49;7.22;;;4.40;;
71639;SDS011;60912;48.968;10.124;2022-08-30T12:52:39;7.90;;;4.25;;
71639;SDS011;60912;48.968;10.124;2022-08-30T12:57:53;7.78;;;4.47;;
71639;SDS011;60912;48.968;10.124;2022-08-30T13:02:58;7.80;;;4.22;;
71639;SDS011;60912;48.968;10.124;2022-08-30T13:05:46;8.05;;;4.38;;
71639;SDS011;60912;48.968;10.124;2022-08-30T13:10:59;6.45;;;3.97;;
71639;SDS011;60912;48.968;10.124;2022-08-30T13:13:31;7.63;;;4.27;;
71639;SDS011;60912;48.968;10.124;2022-08-30T13:18:45;6.93;;;3.90;;
71639;SDS011;60912;48.968;10.124;2022-08-30T13:23:58;7.82;;;4.22;;
71639;SDS011;60912;48.968;10.124;2022-08-30T13:26:32;6.33;;;3.80;;
71639;SDS011;60912;48.968;10.124;2022-08-30T13:29:02;7.93;;;4.68;;
71639;SDS011;60912;48.968;10.124;2022-08-30T13:31:30;6.00;;;4.00;;
71639;SDS011;60912;48.968;10.124;2022-08-30T13:33:56;7.60;;;4.05;;
71639;SDS011;60912;48.968;10.124;2022-08-30T13:36:29;5.90;;;3.80;;
71639;SDS011;60912;48.968;10.124;2022-08-30T13:38:56;6.83;;;3.93;;
71639;SDS011;60912;48.968;10.124;2022-08-30T13:41:23;7.47;;;3.95;;
71639;SDS011;60912;48.968;10.124;2022-08-30T13:43:50;6.90;;;4.00;;
71639;SDS011;60912;48.968;10.124;2022-08-30T13:46:16;8.68;;;3.95;;
71639;SDS011;60912;48.968;10.124;2022-08-30T13:48:43;7.72;;;3.88;;
71639;SDS011;60912;48.968;10.124;2022-08-30T13:51:08;5.93;;;3.90;;
71639;SDS011;60912;48.968;10.124;2022-08-30T13:53:34;6.47;;;3.75;;
71639;SDS011;60912;48.968;10.124;2022-08-30T13:56:00;6.40;;;3.70;;
71639;SDS011;60912;48.968;10.124;2022-08-30T13:58:28;6.60;;;4.20;;
71639;SDS011;60912;48.968;10.124;2022-08-30T14:00:54;9.88;;;4.25;;
71639;SDS011;60912;48.968;10.124;2022-08-30T14:03:19;9.83;;;4.20;;
71639;SDS011;60912;48.968;10.124;2022-08-30T14:05:45;5.23;;;3.97;;
71639;SDS011;60912;48.968;10.124;2022-08-30T14:08:12;7.60;;;3.67;;
71639;SDS011;60912;48.968;10.124;2022-08-30T14:10:39;8.63;;;3.92;;
71639;SDS011;60912;48.968;10.124;2022-08-30T14:13:05;6.45;;;3.95;;
71639;SDS011;60912;48.968;10.124;2022-08-30T14:15:31;6.55;;;3.95;;
71639;SDS011;60912;48.968;10.124;2022-08-30T14:17:57;8.60;;;4.03;;
71639;SDS011;60912;48.968;10.124;2022-08-30T14:20:23;8.93;;;4.20;;
71639;SDS011;60912;48.968;10.124;2022-08-30T14:22:48;6.77;;;4.00;;
71639;SDS011;60912;48.968;10.124;2022-08-30T14:25:13;7.57;;;3.80;;
71639;SDS011;60912;48.968;10.124;2022-08-30T14:27:39;7.50;;;3.83;;
71639;SDS011;60912;48.968;10.124;2022-08-30T14:30:05;5.60;;;3.90;;
71639;SDS011;60912;48.968;10.124;2022-08-30T14:32:31;6.80;;;4.03;;
71639;SDS011;60912;48.968;10.124;2022-08-30T14:34:56;6.87;;;4.03;;
71639;SDS011;60912;48.968;10.124;2022-08-30T14:37:22;8.40;;;3.97;;
71639;SDS011;60912;48.968;10.124;2022-08-30T14:39:47;5.90;;;3.70;;
71639;SDS011;60912;48.968;10.124;2022-08-30T14:42:13;5.38;;;3.63;;
71639;SDS011;60912;48.968;10.124;2022-08-30T14:44:38;6.27;;;3.83;;
71639;SDS011;60912;48.968;10.124;2022-08-30T14:47:04;6.68;;;3.80;;
71639;SDS011;60912;48.968;10.124;2022-08-30T14:49:30;7.70;;;3.90;;
71639;SDS011;60912;48.968;10.124;2022-08-30T14:51:55;8.68;;;4.25;;
71639;SDS011;60912;48.968;10.124;2022-08-30T14:54:22;7.13;;;3.97;;
71639;SDS011;60912;48.968;10.124;2022-08-30T14:56:49;6.95;;;3.65;;
71639;SDS011;60912;48.968;10.124;2022-08-30T14:59:14;6.77;;;4.20;;
71639;SDS011;60912;48.968;10.124;2022-08-30T15:01:40;7.43;;;3.80;;
71639;SDS011;60912;48.968;10.124;2022-08-30T15:04:07;6.85;;;3.78;;
71639;SDS011;60912;48.968;10.124;2022-08-30T15:06:34;4.95;;;3.80;;
71639;SDS011;60912;48.968;10.124;2022-08-30T15:09:01;6.10;;;3.80;;
71639;SDS011;60912;48.968;10.124;2022-08-30T15:11:27;8.15;;;3.92;;
71639;SDS011;60912;48.968;10.124;2022-08-30T15:13:53;8.40;;;4.40;;
71639;SDS011;60912;48.968;10.124;2022-08-30T15:16:19;8.40;;;3.60;;
71639;SDS011;60912;48.968;10.124;2022-08-30T15:18:45;6.55;;;3.50;;
71639;SDS011;60912;48.968;10.124;2022-08-30T15:21:11;6.13;;;3.53;;
71639;SDS011;60912;48.968;10.124;2022-08-30T15:23:37;8.17;;;3.77;;
71639;SDS011;60912;48.968;10.124;2022-08-30T15:26:03;6.90;;;3.58;;
71639;SDS011;60912;48.968;10.124;2022-08-30T15:28:29;7.57;;;3.37;;
71639;SDS011;60912;48.968;10.124;2022-08-30T15:30:54;8.90;;;4.07;;
71639;SDS011;60912;48.968;10.124;2022-08-30T15:33:20;6.37;;;3.40;;
71639;SDS011;60912;48.968;10.124;2022-08-30T15:35:47;7.45;;;3.65;;
71639;SDS011;60912;48.968;10.124;2022-08-30T15:38:13;6.30;;;3.50;;
71639;SDS011;60912;48.968;10.124;2022-08-30T15:40:38;6.90;;;3.85;;
71639;SDS011;60912;48.968;10.124;2022-08-30T15:43:04;7.83;;;4.00;;
71639;SDS011;60912;48.968;10.124;2022-08-30T15:45:30;6.07;;;3.90;;
71639;SDS011;60912;48.968;10.124;2022-08-30T15:47:58;6.10;;;3.80;;
71639;SDS011;60912;48.968;10.124;2022-08-30T15:50:24;6.82;;;3.60;;
71639;SDS011;60912;48.968;10.124;2022-08-30T15:52:49;8.13;;;3.80;;
71639;SDS011;60912;48.968;10.124;2022-08-30T15:55:15;11.35;;;3.95;;
71639;SDS011;60912;48.968;10.124;2022-08-30T15:57:40;6.80;;;3.67;;
71639;SDS011;60912;48.968;10.124;2022-08-30T16:00:06;6.77;;;3.33;;
71639;SDS011;60912;48.968;10.124;2022-08-30T16:02:33;7.18;;;3.72;;
71639;SDS011;60912;48.968;10.124;2022-08-30T16:04:59;7.07;;;3.40;;
71639;SDS011;60912;48.968;10.124;2022-08-30T16:07:24;7.60;;;3.53;;
71639;SDS011;60912;48.968;10.124;2022-08-30T16:09:49;5.60;;;3.28;;
71639;SDS011;60912;48.968;10.124;2022-08-30T16:12:15;7.03;;;3.40;;
71639;SDS011;60912;48.968;10.124;2022-08-30T16:14:40;10.27;;;3.80;;
71639;SDS011;60912;48.968;10.124;2022-08-30T16:17:06;7.10;;;3.60;;
71639;SDS011;60912;48.968;10.124;2022-08-30T16:19:31;5.93;;;3.50;;
71639;SDS011;60912;48.968;10.124;2022-08-30T16:21:57;6.40;;;3.37;;
71639;SDS011;60912;48.968;10.124;2022-08-30T16:24:22;6.50;;;3.30;;
71639;SDS011;60912;48.968;10.124;2022-08-30T16:26:48;5.03;;;2.72;;
71639;SDS011;60912;48.968;10.124;2022-08-30T16:29:14;5.38;;;2.80;;
71639;SDS011;60912;48.968;10.124;2022-08-30T16:31:40;6.30;;;2.93;;
71639;SDS011;60912;48.968;10.124;2022-08-30T16:34:08;6.00;;;2.88;;
71639;SDS011;60912;48.968;10.124;2022-08-30T16:36:34;5.25;;;2.72;;
71639;SDS011;60912;48.968;10.124;2022-08-30T16:39:00;6.70;;;2.93;;